Time;durP1;ratioP1;P1;durP2;ratioP2;P2;SDS_P1;SDS_P2;PMS_P1;PMS_P2;Temp;Humidity;BMP_temperature;BMP_pressure;BME280_temperature;BME280_humidity;BME280_pressure;Samples;Min_cycle;Max_cycle;Signal;HPM_P1;HPM_P2
2022/12/07 00:01:31;;;;;;;5.63;0.40;;;;;;;;;;4994349;28;20109;-75
2022/12/07 00:04:04;;;;;;;3.15;0.43;;;;;;;;;;4994269;28;20051;-75
2022/12/07 00:06:30;;;;;;;9.63;0.52;;;;;;;;;;4994637;28;20026;-75
2022/12/07 00:08:57;;;;;;;3.30;0.50;;;;;;;;;;4994116;28;20049;-75
2022/12/07 00:11:23;;;;;;;3.20;0.30;;;;;;;;;;4994203;28;20066;-75
2022/12/07 00:13:56;;;;;;;5.15;0.63;;;;;;;;;;4994285;28;20054;-75
2022/12/07 00:16:23;;;;;;;6.18;0.80;;;;;;;;;;4994159;28;20378;-75
2022/12/07 00:18:49;;;;;;;3.78;0.60;;;;;;;;;;4976788;28;20088;-75
2022/12/07 00:21:19;;;;;;;6.68;0.55;;;;;;;;;;4994135;28;20054;-75
2022/12/07 00:23:45;;;;;;;;;;;;;;;;;;4994668;28;20081;-75
2022/12/07 00:26:13;;;;;;;6.90;1.25;;;;;;;;;;4993986;28;19906;-75
2022/12/07 00:28:40;;;;;;;5.50;1.13;;;;;;;;;;4994061;28;20033;-75
2022/12/07 00:31:07;;;;;;;6.13;0.80;;;;;;;;;;4994016;28;20101;-75
2022/12/07 00:33:34;;;;;;;8.32;0.70;;;;;;;;;;4975770;28;20027;-75
2022/12/07 00:36:00;;;;;;;3.42;0.65;;;;;;;;;;4974539;28;20082;-75
2022/12/07 00:38:28;;;;;;;6.22;0.82;;;;;;;;;;4974601;28;20034;-75
2022/12/07 00:41:02;;;;;;;5.32;0.60;;;;;;;;;;4974543;28;20110;-75
2022/12/07 00:43:28;;;;;;;2.08;0.38;;;;;;;;;;4974643;28;20022;-75
2022/12/07 00:45:55;;;;;;;8.40;0.80;;;;;;;;;;4977346;28;20038;-75
2022/12/07 00:48:21;;;;;;;4.10;0.93;;;;;;;;;;4978185;28;20085;-75
2022/12/07 00:50:47;;;;;;;3.80;0.70;;;;;;;;;;4978209;28;20037;-75
2022/12/07 00:53:13;;;;;;;6.20;0.82;;;;;;;;;;4977983;28;20082;-75
2022/12/07 00:55:40;;;;;;;9.88;1.70;;;;;;;;;;4978182;28;20402;-75
2022/12/07 00:58:06;;;;;;;5.55;0.68;;;;;;;;;;4983791;28;20114;-75
2022/12/07 01:00:33;;;;;;;5.80;1.15;;;;;;;;;;4997539;28;20477;-75
2022/12/07 01:02:59;;;;;;;5.72;0.90;;;;;;;;;;4997480;28;20046;-75
2022/12/07 01:05:25;;;;;;;6.25;0.60;;;;;;;;;;4997399;28;20061;-75
2022/12/07 01:07:51;;;;;;;2.28;0.45;;;;;;;;;;4997270;28;20069;-75
2022/12/07 01:10:17;;;;;;;3.38;0.45;;;;;;;;;;4979832;28;20022;-75
2022/12/07 01:12:43;;;;;;;6.35;0.63;;;;;;;;;;4997365;28;20035;-75
2022/12/07 01:15:09;;;;;;;6.43;0.80;;;;;;;;;;4997303;28;20033;-75
2022/12/07 01:17:35;;;;;;;5.03;1.02;;;;;;;;;;4997569;28;20026;-75
2022/12/07 01:20:01;;;;;;;3.42;0.68;;;;;;;;;;4997171;28;20110;-75
2022/12/07 01:22:27;;;;;;;7.90;1.63;;;;;;;;;;4997072;28;20030;-75
2022/12/07 01:24:53;;;;;;;3.28;0.45;;;;;;;;;;4976375;28;20030;-75
2022/12/07 01:27:19;;;;;;;4.45;0.60;;;;;;;;;;4977538;28;20035;-75
2022/12/07 01:29:45;;;;;;;4.43;0.70;;;;;;;;;;4977839;28;20370;-75
2022/12/07 01:32:11;;;;;;;7.82;1.77;;;;;;;;;;4977368;28;20470;-75
2022/12/07 01:34:38;;;;;;;6.18;0.50;;;;;;;;;;4977389;28;20169;-75
2022/12/07 01:37:04;;;;;;;6.63;0.98;;;;;;;;;;4977731;28;20040;-75
2022/12/07 01:39:30;;;;;;;5.90;0.65;;;;;;;;;;4977528;28;20034;-75
2022/12/07 01:41:56;;;;;;;6.53;0.90;;;;;;;;;;4977371;28;20484;-75
2022/12/07 01:44:32;;;;;;;10.05;0.90;;;;;;;;;;4977220;28;20031;-75
2022/12/07 01:47:04;;;;;;;6.45;0.73;;;;;;;;;;4977094;28;20085;-75
2022/12/07 01:49:36;;;;;;;8.18;0.60;;;;;;;;;;4977505;28;20035;-75
2022/12/07 01:52:18;;;;;;;2.72;0.50;;;;;;;;;;4976921;28;20390;-75
2022/12/07 01:54:45;;;;;;;1.45;0.43;;;;;;;;;;4977220;28;20104;-75
2022/12/07 01:57:12;;;;;;;1.80;0.40;;;;;;;;;;4958464;28;20085;-75
2022/12/07 01:59:39;;;;;;;3.40;0.30;;;;;;;;;;4976995;28;20023;-75
2022/12/07 02:02:08;;;;;;;0.95;0.00;;;;;;;;;;4976933;28;20445;-75
2022/12/07 02:04:34;;;;;;;2.97;0.60;;;;;;;;;;4977012;28;20062;-75
2022/12/07 02:07:00;;;;;;;0.73;0.10;;;;;;;;;;4959304;28;20034;-75
2022/12/07 02:09:26;;;;;;;0.30;0.20;;;;;;;;;;4976949;28;20078;-75
2022/12/07 02:11:52;;;;;;;2.78;0.57;;;;;;;;;;4976762;28;20026;-75
2022/12/07 02:14:18;;;;;;;6.88;1.13;;;;;;;;;;4976765;28;20470;-75
2022/12/07 02:16:44;;;;;;;5.47;0.47;;;;;;;;;;4976565;28;20034;-75
2022/12/07 02:19:13;;;;;;;3.30;0.30;;;;;;;;;;4976679;28;20066;-75
2022/12/07 02:21:47;;;;;;;3.80;0.40;;;;;;;;;;4976679;28;20042;-75
2022/12/07 02:24:31;;;;;;;6.00;0.85;;;;;;;;;;4976673;28;20023;-75
2022/12/07 02:27:16;;;;;;;6.90;0.80;;;;;;;;;;4976559;28;20462;-75
2022/12/07 02:29:54;;;;;;;3.70;0.47;;;;;;;;;;4976601;28;20089;-75
2022/12/07 02:32:23;;;;;;;2.83;0.35;;;;;;;;;;4976400;28;20025;-75
2022/12/07 02:34:50;;;;;;;3.38;0.50;;;;;;;;;;4976408;28;20033;-75
2022/12/07 02:37:40;;;;;;;7.05;0.82;;;;;;;;;;4976204;28;20081;-75
2022/12/07 02:40:18;;;;;;;6.05;0.77;;;;;;;;;;4966153;28;20066;-75
2022/12/07 02:42:47;;;;;;;4.50;0.43;;;;;;;;;;4976268;28;20458;-75
2022/12/07 02:45:15;;;;;;;8.48;0.68;;;;;;;;;;4976228;28;20026;-75
2022/12/07 02:47:42;;;;;;;3.83;0.30;;;;;;;;;;4975761;28;20038;-75
2022/12/07 02:50:08;;;;;;;3.05;0.50;;;;;;;;;;4976030;28;20045;-75
2022/12/07 02:52:34;;;;;;;5.50;0.80;;;;;;;;;;4975672;28;20054;-75
2022/12/07 02:55:00;;;;;;;4.88;0.60;;;;;;;;;;4976076;28;20033;-75
2022/12/07 02:57:26;;;;;;;5.32;0.98;;;;;;;;;;4975855;28;20027;-75
2022/12/07 03:00:07;;;;;;;4.25;0.65;;;;;;;;;;4975909;28;20027;-75
2022/12/07 03:02:35;;;;;;;9.65;0.95;;;;;;;;;;4975799;28;20370;-75
2022/12/07 03:05:20;;;;;;;5.18;1.10;;;;;;;;;;4975767;28;20110;-75
2022/12/07 03:07:52;;;;;;;8.55;0.77;;;;;;;;;;4975355;28;20031;-75
2022/12/07 03:10:27;;;;;;;4.85;0.43;;;;;;;;;;4958449;28;20065;-75
2022/12/07 03:13:10;;;;;;;5.50;0.68;;;;;;;;;;4975553;28;20370;-75
2022/12/07 03:15:59;;;;;;;2.83;0.43;;;;;;;;;;4975664;28;20035;-75
2022/12/07 03:18:26;;;;;;;2.88;0.32;;;;;;;;;;4965435;28;20129;-75
2022/12/07 03:20:54;;;;;;;10.45;1.58;;;;;;;;;;4975517;28;20054;-75
2022/12/07 03:23:20;;;;;;;2.28;0.60;;;;;;;;;;4958022;28;20119;-75
2022/12/07 03:25:49;;;;;;;2.90;1.10;;;;;;;;;;4975323;28;20026;-75
2022/12/07 03:28:16;;;;;;;3.47;0.65;;;;;;;;;;4975190;28;20073;-75
2022/12/07 03:30:53;;;;;;;3.60;0.73;;;;;;;;;;4958012;28;20046;-75
2022/12/07 03:33:24;;;;;;;9.45;0.98;;;;;;;;;;4975211;28;20051;-75
2022/12/07 03:35:58;;;;;;;4.78;0.47;;;;;;;;;;4975321;28;20439;-75
2022/12/07 03:38:33;;;;;;;2.97;0.60;;;;;;;;;;4975284;28;20082;-75
2022/12/07 03:41:04;;;;;;;8.73;0.57;;;;;;;;;;4975349;28;20031;-75
2022/12/07 03:43:31;;;;;;;2.03;0.40;;;;;;;;;;4975188;28;20038;-75
2022/12/07 03:46:15;;;;;;;2.65;0.50;;;;;;;;;;4975192;28;20462;-75
2022/12/07 03:48:44;;;;;;;3.42;0.45;;;;;;;;;;4974964;28;20118;-75
2022/12/07 03:51:16;;;;;;;4.80;0.43;;;;;;;;;;4975197;28;20097;-75
2022/12/07 03:53:49;;;;;;;4.15;0.38;;;;;;;;;;4974710;28;20489;-75
2022/12/07 03:56:15;;;;;;;3.05;0.30;;;;;;;;;;4975062;28;20466;-75
2022/12/07 03:58:42;;;;;;;3.38;1.35;;;;;;;;;;4974880;28;20030;-74
2022/12/07 04:01:08;;;;;;;1.98;0.50;;;;;;;;;;4974957;28;20034;-75
2022/12/07 04:03:34;;;;;;;0.55;0.20;;;;;;;;;;4974832;28;20030;-75
2022/12/07 04:06:00;;;;;;;5.13;0.63;;;;;;;;;;4974936;28;20415;-75
2022/12/07 04:08:26;;;;;;;5.50;0.50;;;;;;;;;;4974669;28;20037;-75
2022/12/07 04:10:52;;;;;;;3.28;0.40;;;;;;;;;;4974882;28;20031;-75
2022/12/07 04:13:18;;;;;;;2.92;0.40;;;;;;;;;;4974762;28;20457;-75
2022/12/07 04:15:44;;;;;;;3.08;0.50;;;;;;;;;;4974798;28;20102;-75
2022/12/07 04:18:10;;;;;;;4.30;0.65;;;;;;;;;;4974838;28;20042;-75
2022/12/07 04:20:36;;;;;;;5.97;0.82;;;;;;;;;;4977172;28;20023;-75
2022/12/07 04:23:02;;;;;;;4.43;0.50;;;;;;;;;;4978729;28;20023;-75
2022/12/07 04:25:28;;;;;;;6.20;0.70;;;;;;;;;;4978671;28;20117;-75
2022/12/07 04:27:54;;;;;;;6.78;0.80;;;;;;;;;;4978687;28;20031;-75
2022/12/07 04:30:20;;;;;;;2.90;0.45;;;;;;;;;;4978619;28;20484;-75
2022/12/07 04:32:46;;;;;;;7.32;1.58;;;;;;;;;;4978549;28;20100;-75
2022/12/07 04:35:12;;;;;;;4.82;0.68;;;;;;;;;;4978436;28;20054;-75
2022/12/07 04:37:39;;;;;;;8.63;0.85;;;;;;;;;;4978597;28;20089;-75
2022/12/07 04:40:07;;;;;;;8.85;0.82;;;;;;;;;;4978747;28;20110;-75
2022/12/07 04:42:33;;;;;;;4.93;0.80;;;;;;;;;;4978520;28;20026;-75
2022/12/07 04:44:59;;;;;;;10.80;0.88;;;;;;;;;;4978368;28;20034;-75
2022/12/07 04:47:25;;;;;;;5.75;1.00;;;;;;;;;;4960913;28;20557;-75
2022/12/07 04:49:51;;;;;;;7.60;0.82;;;;;;;;;;4978298;28;20089;-75
2022/12/07 04:52:17;;;;;;;4.00;0.30;;;;;;;;;;4978441;28;20055;-75
2022/12/07 04:54:43;;;;;;;3.20;0.40;;;;;;;;;;4977906;28;20409;-75
2022/12/07 04:57:10;;;;;;;1.67;0.30;;;;;;;;;;4978238;28;20482;-75
2022/12/07 04:59:36;;;;;;;2.25;0.32;;;;;;;;;;4978222;28;20027;-75
2022/12/07 05:02:02;;;;;;;4.05;0.30;;;;;;;;;;4978083;28;20478;-75
2022/12/07 05:04:28;;;;;;;7.60;0.75;;;;;;;;;;4978292;28;20035;-75
2022/12/07 05:06:54;;;;;;;2.15;0.82;;;;;;;;;;4978168;28;20458;-75
2022/12/07 05:09:20;;;;;;;5.38;0.60;;;;;;;;;;4977558;28;20078;-75
2022/12/07 05:11:46;;;;;;;0.95;0.20;;;;;;;;;;4977954;28;20470;-75
2022/12/07 05:14:14;;;;;;;1.35;0.25;;;;;;;;;;4977911;28;20051;-75
2022/12/07 05:16:40;;;;;;;0.77;0.13;;;;;;;;;;4977746;28;20394;-75
2022/12/07 05:19:07;;;;;;;3.20;0.50;;;;;;;;;;4977907;28;20026;-75
2022/12/07 05:21:33;;;;;;;5.15;0.60;;;;;;;;;;4977594;28;20590;-75
2022/12/07 05:23:59;;;;;;;3.47;0.38;;;;;;;;;;4977750;28;20029;-75
2022/12/07 05:26:25;;;;;;;3.05;0.40;;;;;;;;;;4977486;28;20393;-75
2022/12/07 05:28:52;;;;;;;3.75;0.80;;;;;;;;;;4977772;28;20488;-75
2022/12/07 05:31:18;;;;;;;4.22;0.60;;;;;;;;;;4977189;28;20084;-75
2022/12/07 05:33:44;;;;;;;3.95;0.47;;;;;;;;;;4977530;28;20034;-75
2022/12/07 05:36:10;;;;;;;4.75;0.55;;;;;;;;;;4977392;28;20027;-75
2022/12/07 05:38:36;;;;;;;5.30;0.93;;;;;;;;;;4977557;28;20038;-75
2022/12/07 05:41:02;;;;;;;5.78;0.70;;;;;;;;;;4977258;28;20023;-75
2022/12/07 05:43:29;;;;;;;7.78;0.63;;;;;;;;;;4960067;28;20025;-75
2022/12/07 05:45:55;;;;;;;3.28;0.60;;;;;;;;;;4977196;28;20056;-75
2022/12/07 05:48:21;;;;;;;6.97;0.55;;;;;;;;;;4977179;28;20655;-75
2022/12/07 05:50:50;;;;;;;1.95;0.50;;;;;;;;;;4977182;28;20055;-75
2022/12/07 05:53:16;;;;;;;5.53;0.85;;;;;;;;;;4976778;28;20047;-75
2022/12/07 05:55:42;;;;;;;4.25;0.55;;;;;;;;;;4977121;28;20031;-75
2022/12/07 06:00:54;;;;;;;8.02;0.85;;;;;;;;;;4977110;28;20046;-75
2022/12/07 06:03:20;;;;;;;7.20;1.58;;;;;;;;;;4976943;28;20374;-75
2022/12/07 06:05:46;;;;;;;2.05;0.70;;;;;;;;;;4976895;28;20022;-75
2022/12/07 06:08:14;;;;;;;6.20;0.80;;;;;;;;;;4976924;28;20023;-75
2022/12/07 06:10:41;;;;;;;7.45;1.25;;;;;;;;;;4976145;28;20038;-75
2022/12/07 06:13:07;;;;;;;6.22;0.70;;;;;;;;;;4976855;28;20065;-75
2022/12/07 06:15:33;;;;;;;6.82;0.55;;;;;;;;;;4976552;28;20109;-75
2022/12/07 06:17:59;;;;;;;9.95;1.00;;;;;;;;;;4976546;28;20421;-75
2022/12/07 06:20:25;;;;;;;6.00;0.93;;;;;;;;;;4976464;28;20038;-75
2022/12/07 06:22:51;;;;;;;5.32;0.65;;;;;;;;;;4976469;28;20145;-75
2022/12/07 06:25:17;;;;;;;5.93;0.90;;;;;;;;;;4976537;28;20370;-75
2022/12/07 06:27:43;;;;;;;5.18;1.00;;;;;;;;;;4976417;28;20106;-75
2022/12/07 06:30:09;;;;;;;14.13;1.15;;;;;;;;;;4991499;28;20113;-75
2022/12/07 06:32:37;;;;;;;3.05;0.30;;;;;;;;;;4995771;28;20489;-75
2022/12/07 06:35:03;;;;;;;3.95;0.52;;;;;;;;;;4995659;28;20026;-75
2022/12/07 06:37:29;;;;;;;4.60;0.52;;;;;;;;;;4995775;28;20035;-75
2022/12/07 06:39:55;;;;;;;17.48;1.90;;;;;;;;;;4995837;28;20077;-75
2022/12/07 06:42:21;;;;;;;5.22;1.08;;;;;;;;;;4995116;28;20023;-75
2022/12/07 06:44:47;;;;;;;8.20;0.77;;;;;;;;;;4995556;28;20023;-75
2022/12/07 06:47:13;;;;;;;0.52;0.20;;;;;;;;;;4995435;28;20031;-75
2022/12/07 06:49:39;;;;;;;5.55;0.50;;;;;;;;;;4995505;28;20457;-75
2022/12/07 06:52:05;;;;;;;9.95;0.93;;;;;;;;;;4995590;28;20023;-75
2022/12/07 06:54:31;;;;;;;3.53;0.50;;;;;;;;;;4987594;28;20058;-75
2022/12/07 06:56:57;;;;;;;8.57;0.95;;;;;;;;;;4978298;28;20027;-75
2022/12/07 06:59:23;;;;;;;4.05;0.50;;;;;;;;;;4977832;28;20041;-75
2022/12/07 07:01:49;;;;;;;6.40;0.70;;;;;;;;;;4995340;28;20458;-75
2022/12/07 07:04:15;;;;;;;6.38;0.60;;;;;;;;;;4995455;28;20022;-75
2022/12/07 07:06:41;;;;;;;3.80;0.75;;;;;;;;;;4995221;28;20031;-75
2022/12/07 07:09:09;;;;;;;4.13;0.47;;;;;;;;;;4995097;28;20034;-76
2022/12/07 07:11:35;;;;;;;5.13;0.63;;;;;;;;;;4988049;28;20098;-75
2022/12/07 07:14:02;;;;;;;1.88;0.43;;;;;;;;;;4975576;28;20026;-76
2022/12/07 07:16:29;;;;;;;2.40;0.40;;;;;;;;;;4988158;28;20034;-75
2022/12/07 07:18:55;;;;;;;2.67;0.60;;;;;;;;;;4986391;28;20038;-76
2022/12/07 07:21:21;;;;;;;1.27;0.40;;;;;;;;;;4995001;28;20048;-75
2022/12/07 07:23:47;;;;;;;9.98;1.63;;;;;;;;;;4994806;28;20032;-75
2022/12/07 07:26:13;;;;;;;7.57;1.00;;;;;;;;;;4994589;28;20458;-75
2022/12/07 07:28:39;;;;;;;4.90;0.68;;;;;;;;;;4994264;28;20022;-75
2022/12/07 07:31:05;;;;;;;3.10;0.60;;;;;;;;;;4977571;28;20370;-75
2022/12/07 07:33:31;;;;;;;9.70;0.70;;;;;;;;;;4994667;28;20041;-75
2022/12/07 07:35:57;;;;;;;6.80;0.77;;;;;;;;;;4994689;28;20450;-75
2022/12/07 07:38:23;;;;;;;7.10;0.75;;;;;;;;;;4994641;28;20034;-75
2022/12/07 07:40:49;;;;;;;3.95;0.52;;;;;;;;;;4994736;28;20037;-75
2022/12/07 07:43:15;;;;;;;5.53;0.70;;;;;;;;;;4994896;28;20018;-75
2022/12/07 07:45:41;;;;;;;4.60;0.65;;;;;;;;;;4994912;28;20030;-75
2022/12/07 07:48:07;;;;;;;7.68;1.15;;;;;;;;;;4994397;28;20041;-75
2022/12/07 07:50:33;;;;;;;5.18;0.70;;;;;;;;;;4994424;28;20038;-75
2022/12/07 07:52:59;;;;;;;6.55;0.75;;;;;;;;;;4994067;28;20093;-75
2022/12/07 07:55:25;;;;;;;3.60;0.80;;;;;;;;;;4976165;28;20026;-75
2022/12/07 07:57:51;;;;;;;4.13;0.60;;;;;;;;;;4989935;28;20765;-75
2022/12/07 08:00:17;;;;;;;4.35;0.55;;;;;;;;;;4982440;28;20027;-75
2022/12/07 08:02:43;;;;;;;4.43;0.85;;;;;;;;;;4974852;28;20459;-75
2022/12/07 08:05:11;;;;;;;3.83;0.50;;;;;;;;;;4974805;28;20029;-75
2022/12/07 08:07:37;;;;;;;3.13;0.73;;;;;;;;;;4974537;28;20465;-75
2022/12/07 08:10:03;;;;;;;3.15;0.82;;;;;;;;;;4974955;28;20109;-75
2022/12/07 08:12:29;;;;;;;7.97;0.70;;;;;;;;;;4974776;28;20033;-75
2022/12/07 08:14:55;;;;;;;5.95;0.90;;;;;;;;;;4974974;28;20102;-75
2022/12/07 08:17:21;;;;;;;7.10;1.10;;;;;;;;;;4984219;28;20026;-76
2022/12/07 08:19:47;;;;;;;4.32;0.60;;;;;;;;;;4994177;28;20033;-76
2022/12/07 08:22:13;;;;;;;0.52;0.43;;;;;;;;;;4994313;28;20054;-75
2022/12/07 08:24:39;;;;;;;2.33;0.60;;;;;;;;;;4993927;28;20385;-76
2022/12/07 08:27:05;;;;;;;7.50;0.75;;;;;;;;;;4994248;28;20105;-75
2022/12/07 08:29:31;;;;;;;3.85;0.65;;;;;;;;;;4994096;28;20038;-75
2022/12/07 08:31:58;;;;;;;3.65;0.80;;;;;;;;;;4994058;28;20037;-75
2022/12/07 08:34:24;;;;;;;1.73;0.40;;;;;;;;;;4994159;28;20022;-76
2022/12/07 08:36:50;;;;;;;2.03;0.70;;;;;;;;;;4993871;28;20077;-76
2022/12/07 08:39:16;;;;;;;2.47;0.73;;;;;;;;;;4994276;28;20067;-76
2022/12/07 08:41:42;;;;;;;3.72;0.38;;;;;;;;;;4994032;28;20134;-76
2022/12/07 08:44:08;;;;;;;4.20;0.40;;;;;;;;;;4993901;28;20033;-75
2022/12/07 08:46:40;;;;;;;4.50;0.82;;;;;;;;;;4993709;28;20034;-75
2022/12/07 08:49:06;;;;;;;0.77;0.30;;;;;;;;;;4993893;28;20049;-75
2022/12/07 08:51:32;;;;;;;2.78;0.40;;;;;;;;;;4994038;28;20030;-75
2022/12/07 08:53:59;;;;;;;4.00;0.50;;;;;;;;;;4993508;28;20042;-76
2022/12/07 08:56:25;;;;;;;1.42;0.90;;;;;;;;;;4993950;28;20014;-76
2022/12/07 08:58:51;;;;;;;3.38;0.80;;;;;;;;;;4993752;28;20073;-75
2022/12/07 09:01:17;;;;;;;3.35;1.00;;;;;;;;;;4993745;28;20416;-76
2022/12/07 09:03:43;;;;;;;6.47;0.82;;;;;;;;;;4993721;28;20458;-76
2022/12/07 09:06:09;;;;;;;2.65;1.05;;;;;;;;;;4995504;28;20109;-76
2022/12/07 09:08:40;;;;;;;5.65;0.90;;;;;;;;;;4997404;28;20516;-76
2022/12/07 09:11:06;;;;;;;5.97;1.60;;;;;;;;;;4997427;28;20076;-76
2022/12/07 09:13:32;;;;;;;5.00;1.02;;;;;;;;;;4997267;28;20424;-76
2022/12/07 09:15:58;;;;;;;6.60;1.45;;;;;;;;;;4997180;28;20027;-76
2022/12/07 09:18:24;;;;;;;6.63;1.75;;;;;;;;;;4997039;28;20062;-76
2022/12/07 09:20:50;;;;;;;7.20;1.70;;;;;;;;;;4997442;28;20069;-76
2022/12/07 09:23:16;;;;;;;5.75;1.45;;;;;;;;;;4997154;28;20026;-76
2022/12/07 09:25:42;;;;;;;6.93;1.65;;;;;;;;;;4997025;28;20105;-76
2022/12/07 09:28:08;;;;;;;6.10;1.50;;;;;;;;;;4997084;28;20030;-75
2022/12/07 09:30:34;;;;;;;3.67;1.00;;;;;;;;;;4997058;28;20057;-76
2022/12/07 09:33:00;;;;;;;4.65;1.13;;;;;;;;;;4996989;28;20022;-76
2022/12/07 09:35:27;;;;;;;8.55;0.95;;;;;;;;;;4996880;28;20481;-75
2022/12/07 09:37:53;;;;;;;4.70;0.90;;;;;;;;;;4996985;28;20026;-76
2022/12/07 09:40:20;;;;;;;6.47;1.63;;;;;;;;;;4996814;28;20034;-76
2022/12/07 09:42:48;;;;;;;10.63;2.58;;;;;;;;;;4996879;28;20031;-76
2022/12/07 09:45:22;;;;;;;5.20;1.00;;;;;;;;;;4996617;28;20033;-76
2022/12/07 09:47:48;;;;;;;4.95;1.20;;;;;;;;;;4996634;28;20033;-76
2022/12/07 09:50:17;;;;;;;5.72;1.20;;;;;;;;;;4996604;28;20037;-75
2022/12/07 09:52:45;;;;;;;2.22;0.73;;;;;;;;;;4996490;28;20019;-76
2022/12/07 09:55:12;;;;;;;6.53;1.15;;;;;;;;;;4996842;28;20602;-76
2022/12/07 09:57:38;;;;;;;10.40;1.52;;;;;;;;;;4996311;28;20030;-75
2022/12/07 10:00:07;;;;;;;5.65;0.80;;;;;;;;;;4996423;28;20030;-75
2022/12/07 10:02:33;;;;;;;6.50;1.13;;;;;;;;;;4995240;28;20469;-76
2022/12/07 10:04:59;;;;;;;4.75;1.15;;;;;;;;;;4996122;28;20032;-75
2022/12/07 10:07:25;;;;;;;7.75;1.42;;;;;;;;;;4978899;28;20109;-76
2022/12/07 10:09:51;;;;;;;5.85;1.10;;;;;;;;;;4996334;28;20512;-75
2022/12/07 10:12:17;;;;;;;4.40;0.80;;;;;;;;;;4996251;28;20030;-76
2022/12/07 10:14:59;;;;;;;2.45;0.30;;;;;;;;;;4996783;28;20034;-76
2022/12/07 10:17:30;;;;;;;2.38;0.30;;;;;;;;;;4995671;28;20061;-76
2022/12/07 10:20:13;;;;;;;3.72;0.57;;;;;;;;;;4995813;28;20040;-76
2022/12/07 10:22:54;;;;;;;3.15;0.77;;;;;;;;;;4996088;28;20042;-76
2022/12/07 10:25:21;;;;;;;2.05;0.30;;;;;;;;;;4995049;28;20045;-76
2022/12/07 10:27:58;;;;;;;1.35;0.30;;;;;;;;;;4976895;28;20062;-75
2022/12/07 10:30:24;;;;;;;4.35;0.40;;;;;;;;;;4976620;28;20039;-75
2022/12/07 10:32:50;;;;;;;4.28;0.45;;;;;;;;;;4959025;28;20034;-75
2022/12/07 10:35:25;;;;;;;2.60;0.30;;;;;;;;;;4976358;28;20113;-75
2022/12/07 10:37:52;;;;;;;2.78;0.43;;;;;;;;;;4976456;28;20058;-76
2022/12/07 10:40:33;;;;;;;7.75;0.93;;;;;;;;;;4976205;28;20362;-76
2022/12/07 10:43:05;;;;;;;3.72;0.63;;;;;;;;;;4976786;28;20531;-76
2022/12/07 10:45:31;;;;;;;3.92;1.00;;;;;;;;;;4958970;28;20033;-75
2022/12/07 10:48:15;;;;;;;4.25;0.90;;;;;;;;;;4975984;28;20135;-76
2022/12/07 10:51:00;;;;;;;2.88;0.55;;;;;;;;;;4974818;28;20038;-76
2022/12/07 10:53:30;;;;;;;3.60;0.70;;;;;;;;;;4991570;28;20051;-76
2022/12/07 10:56:03;;;;;;;7.68;1.00;;;;;;;;;;4994758;28;20041;-76
2022/12/07 10:58:40;;;;;;;6.13;1.10;;;;;;;;;;4995399;28;20077;-76
2022/12/07 11:01:24;;;;;;;5.60;1.15;;;;;;;;;;4995179;28;20035;-76
2022/12/07 11:04:09;;;;;;;7.45;1.70;;;;;;;;;;4995435;28;20088;-76
2022/12/07 11:06:54;;;;;;;4.18;0.90;;;;;;;;;;4995208;28;20450;-76
2022/12/07 11:09:40;;;;;;;3.38;0.60;;;;;;;;;;4986872;28;20027;-76
2022/12/07 11:12:29;;;;;;;2.35;0.40;;;;;;;;;;4989962;28;20493;-75
2022/12/07 11:15:13;;;;;;;3.85;0.82;;;;;;;;;;4976440;28;20031;-76
2022/12/07 11:17:48;;;;;;;3.53;0.52;;;;;;;;;;4975486;28;20497;-75
2022/12/07 11:20:20;;;;;;;5.22;0.70;;;;;;;;;;4975496;28;20054;-76
2022/12/07 11:23:06;;;;;;;3.63;0.35;;;;;;;;;;4993206;28;20057;-76
2022/12/07 11:25:35;;;;;;;2.83;0.60;;;;;;;;;;4965000;28;20046;-76
2022/12/07 11:28:20;;;;;;;5.70;0.80;;;;;;;;;;4995101;28;20037;-76
2022/12/07 11:30:51;;;;;;;3.15;0.30;;;;;;;;;;4994866;28;20031;-76
2022/12/07 11:33:17;;;;;;;4.40;0.52;;;;;;;;;;4994918;28;20445;-76
2022/12/07 11:35:46;;;;;;;4.78;0.70;;;;;;;;;;4984531;28;20027;-76
2022/12/07 11:38:12;;;;;;;1.30;0.38;;;;;;;;;;4975237;28;20121;-76
2022/12/07 11:40:39;;;;;;;4.60;0.60;;;;;;;;;;4975109;28;20058;-76
2022/12/07 11:43:08;;;;;;;5.50;0.47;;;;;;;;;;4975478;28;20469;-76
2022/12/07 11:45:35;;;;;;;3.03;0.50;;;;;;;;;;4975219;28;20090;-76
2022/12/07 11:48:03;;;;;;;4.18;0.57;;;;;;;;;;4974980;28;20105;-76
2022/12/07 11:50:35;;;;;;;7.03;0.85;;;;;;;;;;4975316;28;20552;-76
2022/12/07 11:53:21;;;;;;;5.05;0.50;;;;;;;;;;4974846;28;20069;-76
2022/12/07 11:55:53;;;;;;;4.85;0.70;;;;;;;;;;4975353;28;20039;-76
2022/12/07 11:58:34;;;;;;;3.17;0.47;;;;;;;;;;4975026;28;20035;-75
2022/12/07 12:01:06;;;;;;;2.78;0.40;;;;;;;;;;4974899;28;20465;-75
2022/12/07 12:03:34;;;;;;;6.55;0.88;;;;;;;;;;4974797;28;20131;-76
2022/12/07 12:06:00;;;;;;;8.32;1.55;;;;;;;;;;4957679;28;20042;-76
2022/12/07 12:08:45;;;;;;;7.03;1.45;;;;;;;;;;4974416;28;20042;-76
2022/12/07 12:11:30;;;;;;;5.00;0.63;;;;;;;;;;4974948;28;20462;-75
2022/12/07 12:13:56;;;;;;;3.08;0.50;;;;;;;;;;4974871;28;20027;-75
2022/12/07 12:16:31;;;;;;;1.65;0.45;;;;;;;;;;4974752;28;20031;-75
2022/12/07 12:19:03;;;;;;;3.47;0.50;;;;;;;;;;4974854;28;20035;-75
2022/12/07 12:21:29;;;;;;;3.38;0.50;;;;;;;;;;4974446;28;20034;-75
2022/12/07 12:23:59;;;;;;;3.42;0.40;;;;;;;;;;4974573;28;20057;-73
2022/12/07 12:26:26;;;;;;;2.67;0.80;;;;;;;;;;4957466;28;20027;-73
2022/12/07 12:28:59;;;;;;;3.78;0.82;;;;;;;;;;4974444;28;20038;-73
2022/12/07 12:31:38;;;;;;;5.22;1.05;;;;;;;;;;4974727;28;20150;-73
2022/12/07 12:34:24;;;;;;;7.68;0.93;;;;;;;;;;4974960;28;20026;-73
2022/12/07 12:36:50;;;;;;;2.55;1.00;;;;;;;;;;4974368;28;20027;-73
2022/12/07 12:39:20;;;;;;;4.35;1.00;;;;;;;;;;4974694;28;20031;-73
2022/12/07 12:44:32;;;;;;;4.15;0.77;;;;;;;;;;4978388;28;20050;-73
2022/12/07 12:47:02;;;;;;;4.05;0.88;;;;;;;;;;4974386;28;20035;-75
2022/12/07 12:49:28;;;;;;;3.83;0.70;;;;;;;;;;4978193;28;20026;-76
2022/12/07 12:51:56;;;;;;;3.85;0.80;;;;;;;;;;4978233;28;20374;-75
2022/12/07 12:54:26;;;;;;;6.53;0.73;;;;;;;;;;4977611;28;20046;-75
2022/12/07 12:57:04;;;;;;;4.82;0.50;;;;;;;;;;4978521;28;20033;-75
2022/12/07 12:59:36;;;;;;;3.50;0.95;;;;;;;;;;4978055;28;20034;-75
2022/12/07 13:02:24;;;;;;;7.15;1.00;;;;;;;;;;4960586;28;20039;-75
2022/12/07 13:04:50;;;;;;;5.10;0.60;;;;;;;;;;4978152;28;20035;-75
2022/12/07 13:07:35;;;;;;;3.17;0.88;;;;;;;;;;4977966;28;20026;-75
2022/12/07 13:10:02;;;;;;;3.42;0.80;;;;;;;;;;4977688;28;20046;-75
2022/12/07 13:12:28;;;;;;;3.55;0.68;;;;;;;;;;4977753;28;20026;-75
2022/12/07 13:14:55;;;;;;;1.77;0.32;;;;;;;;;;4980505;28;21626;-75
2022/12/07 13:17:33;;;;;;;2.33;0.60;;;;;;;;;;4997339;28;20033;-75
2022/12/07 13:20:00;;;;;;;2.33;1.10;;;;;;;;;;4997387;28;20158;-75
2022/12/07 13:22:28;;;;;;;4.28;1.20;;;;;;;;;;4997766;28;20085;-75
2022/12/07 13:24:58;;;;;;;5.85;0.90;;;;;;;;;;4996777;28;20027;-75
2022/12/07 13:27:25;;;;;;;5.32;0.95;;;;;;;;;;4977668;28;20031;-75
2022/12/07 13:29:52;;;;;;;1.85;0.30;;;;;;;;;;4977536;28;20042;-75
2022/12/07 13:32:24;;;;;;;1.10;0.30;;;;;;;;;;4977390;28;20082;-75
2022/12/07 13:34:50;;;;;;;5.22;0.43;;;;;;;;;;4977398;28;20107;-75
2022/12/07 13:37:19;;;;;;;1.00;0.20;;;;;;;;;;4977446;28;20063;-75
2022/12/07 13:39:50;;;;;;;2.05;0.30;;;;;;;;;;4977237;28;20039;-75
2022/12/07 13:42:22;;;;;;;0.63;0.30;;;;;;;;;;4977517;28;20023;-75
2022/12/07 13:44:48;;;;;;;0.28;0.20;;;;;;;;;;4977319;28;20026;-75
2022/12/07 13:47:23;;;;;;;0.20;0.10;;;;;;;;;;4977410;28;20049;-75
2022/12/07 13:49:51;;;;;;;1.75;0.22;;;;;;;;;;4959806;28;20038;-75
2022/12/07 13:52:21;;;;;;;0.77;0.20;;;;;;;;;;4976042;28;20042;-75
2022/12/07 13:55:06;;;;;;;2.33;0.60;;;;;;;;;;4990144;28;20054;-75
2022/12/07 13:57:34;;;;;;;4.18;0.85;;;;;;;;;;4996686;28;20405;-74
2022/12/07 14:00:01;;;;;;;2.22;0.70;;;;;;;;;;4996630;28;20030;-74
2022/12/07 14:02:28;;;;;;;3.67;1.00;;;;;;;;;;4996344;28;20030;-74
2022/12/07 14:05:08;;;;;;;6.38;1.50;;;;;;;;;;4996183;28;20469;-75
2022/12/07 14:07:35;;;;;;;2.22;0.65;;;;;;;;;;4969657;28;20501;-75
2022/12/07 14:10:04;;;;;;;2.63;0.93;;;;;;;;;;4991032;28;20027;-74
2022/12/07 14:12:30;;;;;;;3.17;0.50;;;;;;;;;;4996010;28;20027;-75
2022/12/07 14:14:57;;;;;;;5.35;1.60;;;;;;;;;;4990993;28;20022;-74
2022/12/07 14:17:26;;;;;;;3.67;1.10;;;;;;;;;;4985103;28;20485;-75
2022/12/07 14:19:55;;;;;;;4.88;1.73;;;;;;;;;;4989880;28;20018;-75
2022/12/07 14:22:23;;;;;;;12.57;6.97;;;;;;;;;;4988623;28;20036;-76
2022/12/07 14:24:50;;;;;;;9.85;4.22;;;;;;;;;;4995291;28;20425;-76
2022/12/07 14:27:21;;;;;;;6.10;3.10;;;;;;;;;;4985498;28;20478;-76
2022/12/07 14:29:47;;;;;;;4.38;1.70;;;;;;;;;;4989087;28;20039;-76
2022/12/07 14:32:22;;;;;;;3.97;1.20;;;;;;;;;;4985804;28;20450;-76
2022/12/07 14:34:55;;;;;;;2.35;0.50;;;;;;;;;;4989010;28;20014;-76
2022/12/07 14:37:20;;;;;;;1.40;0.47;;;;;;;;;;4976182;28;20436;-75
2022/12/07 14:39:46;;;;;;;1.92;0.50;;;;;;;;;;4995181;28;20161;-75
2022/12/07 14:42:12;;;;;;;4.72;0.70;;;;;;;;;;4989275;28;20023;-75
2022/12/07 14:44:38;;;;;;;1.42;0.77;;;;;;;;;;4976077;28;20023;-76
2022/12/07 14:47:04;;;;;;;4.22;1.83;;;;;;;;;;4976093;28;20407;-76
2022/12/07 14:49:30;;;;;;;1.80;1.30;;;;;;;;;;4975867;28;20035;-76
2022/12/07 14:51:56;;;;;;;3.03;1.05;;;;;;;;;;4984977;28;20761;-75
2022/12/07 14:54:25;;;;;;;2.45;1.10;;;;;;;;;;4993788;28;20057;-76
2022/12/07 14:56:51;;;;;;;1.92;0.80;;;;;;;;;;4995445;28;20026;-76
2022/12/07 14:59:18;;;;;;;2.58;1.17;;;;;;;;;;4995403;28;20401;-76